sensor_id;sensor_type;location;lat;lon;timestamp;P1;durP1;ratioP1;P2;durP2;ratioP2
75358;SDS011;64046;51.978;5.934;2022-11-15T00:00:58;34.60;;;15.93;;
75358;SDS011;64046;51.978;5.934;2022-11-15T00:03:45;40.58;;;17.42;;
75358;SDS011;64046;51.978;5.934;2022-11-15T00:06:33;28.85;;;13.13;;
75358;SDS011;64046;51.978;5.934;2022-11-15T00:09:21;30.20;;;14.88;;
75358;SDS011;64046;51.978;5.934;2022-11-15T00:12:08;32.40;;;15.98;;
75358;SDS011;64046;51.978;5.934;2022-11-15T00:14:59;26.80;;;12.52;;
75358;SDS011;64046;51.978;5.934;2022-11-15T00:17:48;37.83;;;16.10;;
75358;SDS011;64046;51.978;5.934;2022-11-15T00:20:36;34.63;;;15.00;;
75358;SDS011;64046;51.978;5.934;2022-11-15T00:23:24;24.67;;;11.88;;
75358;SDS011;64046;51.978;5.934;2022-11-15T00:26:12;23.52;;;12.07;;
75358;SDS011;64046;51.978;5.934;2022-11-15T00:29:01;28.48;;;13.98;;
75358;SDS011;64046;51.978;5.934;2022-11-15T00:31:51;22.02;;;11.25;;
75358;SDS011;64046;51.978;5.934;2022-11-15T00:34:39;20.30;;;9.85;;
75358;SDS011;64046;51.978;5.934;2022-11-15T00:37:27;32.35;;;14.15;;
75358;SDS011;64046;51.978;5.934;2022-11-15T00:40:15;26.25;;;12.00;;
75358;SDS011;64046;51.978;5.934;2022-11-15T00:43:03;35.35;;;13.15;;
75358;SDS011;64046;51.978;5.934;2022-11-15T00:45:51;29.67;;;13.70;;
75358;SDS011;64046;51.978;5.934;2022-11-15T00:48:41;28.33;;;14.63;;
75358;SDS011;64046;51.978;5.934;2022-11-15T00:51:29;36.65;;;14.60;;
75358;SDS011;64046;51.978;5.934;2022-11-15T00:54:17;36.05;;;16.67;;
75358;SDS011;64046;51.978;5.934;2022-11-15T00:57:04;35.20;;;16.88;;
75358;SDS011;64046;51.978;5.934;2022-11-15T00:59:52;28.10;;;14.05;;
75358;SDS011;64046;51.978;5.934;2022-11-15T01:02:40;33.67;;;14.95;;
75358;SDS011;64046;51.978;5.934;2022-11-15T01:05:30;26.70;;;11.82;;
75358;SDS011;64046;51.978;5.934;2022-11-15T01:08:18;35.70;;;15.70;;
75358;SDS011;64046;51.978;5.934;2022-11-15T01:11:06;29.33;;;13.15;;
75358;SDS011;64046;51.978;5.934;2022-11-15T01:13:56;22.70;;;11.70;;
75358;SDS011;64046;51.978;5.934;2022-11-15T01:16:44;26.00;;;10.82;;
75358;SDS011;64046;51.978;5.934;2022-11-15T01:19:32;18.83;;;11.55;;
75358;SDS011;64046;51.978;5.934;2022-11-15T01:22:22;28.17;;;12.57;;
75358;SDS011;64046;51.978;5.934;2022-11-15T01:25:10;36.30;;;16.33;;
75358;SDS011;64046;51.978;5.934;2022-11-15T01:27:58;27.13;;;13.90;;
75358;SDS011;64046;51.978;5.934;2022-11-15T01:30:46;27.45;;;14.13;;
75358;SDS011;64046;51.978;5.934;2022-11-15T01:33:34;23.98;;;11.90;;
75358;SDS011;64046;51.978;5.934;2022-11-15T01:36:22;25.23;;;12.50;;
75358;SDS011;64046;51.978;5.934;2022-11-15T01:39:13;23.95;;;11.82;;
75358;SDS011;64046;51.978;5.934;2022-11-15T01:42:01;27.92;;;12.30;;
75358;SDS011;64046;51.978;5.934;2022-11-15T01:44:49;19.30;;;11.25;;
75358;SDS011;64046;51.978;5.934;2022-11-15T01:47:39;19.23;;;11.55;;
75358;SDS011;64046;51.978;5.934;2022-11-15T01:50:30;23.65;;;12.48;;
75358;SDS011;64046;51.978;5.934;2022-11-15T01:53:19;21.05;;;11.57;;
75358;SDS011;64046;51.978;5.934;2022-11-15T01:56:15;22.92;;;12.50;;
75358;SDS011;64046;51.978;5.934;2022-11-15T01:59:07;20.55;;;11.70;;
75358;SDS011;64046;51.978;5.934;2022-11-15T02:01:56;21.10;;;11.23;;
75358;SDS011;64046;51.978;5.934;2022-11-15T02:07:33;18.73;;;10.40;;
75358;SDS011;64046;51.978;5.934;2022-11-15T02:10:23;18.63;;;11.13;;
75358;SDS011;64046;51.978;5.934;2022-11-15T02:13:14;18.25;;;10.30;;
75358;SDS011;64046;51.978;5.934;2022-11-15T02:16:04;15.23;;;10.05;;
75358;SDS011;64046;51.978;5.934;2022-11-15T02:19:07;17.27;;;10.95;;
75358;SDS011;64046;51.978;5.934;2022-11-15T02:22:26;20.83;;;11.23;;
75358;SDS011;64046;51.978;5.934;2022-11-15T02:25:29;19.23;;;10.88;;
75358;SDS011;64046;51.978;5.934;2022-11-15T02:28:35;19.25;;;10.88;;
75358;SDS011;64046;51.978;5.934;2022-11-15T02:31:35;20.63;;;11.63;;
75358;SDS011;64046;51.978;5.934;2022-11-15T02:34:32;21.83;;;10.40;;
75358;SDS011;64046;51.978;5.934;2022-11-15T02:37:28;25.23;;;10.98;;
75358;SDS011;64046;51.978;5.934;2022-11-15T02:40:25;20.15;;;11.18;;
75358;SDS011;64046;51.978;5.934;2022-11-15T02:43:21;19.65;;;11.77;;
75358;SDS011;64046;51.978;5.934;2022-11-15T02:46:28;18.00;;;10.55;;
75358;SDS011;64046;51.978;5.934;2022-11-15T02:49:37;19.30;;;11.60;;
75358;SDS011;64046;51.978;5.934;2022-11-15T02:52:26;18.10;;;10.20;;
75358;SDS011;64046;51.978;5.934;2022-11-15T02:58:24;19.27;;;10.30;;
75358;SDS011;64046;51.978;5.934;2022-11-15T03:01:41;17.33;;;10.57;;
75358;SDS011;64046;51.978;5.934;2022-11-15T03:04:43;23.08;;;12.13;;
75358;SDS011;64046;51.978;5.934;2022-11-15T03:07:37;18.63;;;10.98;;
75358;SDS011;64046;51.978;5.934;2022-11-15T03:10:32;19.08;;;11.05;;
75358;SDS011;64046;51.978;5.934;2022-11-15T03:13:30;18.98;;;12.15;;
75358;SDS011;64046;51.978;5.934;2022-11-15T03:16:24;16.83;;;10.20;;
75358;SDS011;64046;51.978;5.934;2022-11-15T03:19:22;16.02;;;9.10;;
75358;SDS011;64046;51.978;5.934;2022-11-15T03:22:17;19.35;;;9.68;;
75358;SDS011;64046;51.978;5.934;2022-11-15T03:25:08;15.70;;;8.77;;
75358;SDS011;64046;51.978;5.934;2022-11-15T03:28:01;16.30;;;9.82;;
75358;SDS011;64046;51.978;5.934;2022-11-15T03:30:53;16.73;;;9.20;;
75358;SDS011;64046;51.978;5.934;2022-11-15T03:33:42;15.40;;;10.00;;
75358;SDS011;64046;51.978;5.934;2022-11-15T03:36:33;17.65;;;9.55;;
75358;SDS011;64046;51.978;5.934;2022-11-15T03:39:22;18.25;;;10.77;;
75358;SDS011;64046;51.978;5.934;2022-11-15T03:42:14;14.27;;;9.02;;
75358;SDS011;64046;51.978;5.934;2022-11-15T03:45:10;19.60;;;9.68;;
75358;SDS011;64046;51.978;5.934;2022-11-15T03:48:02;14.50;;;9.05;;
75358;SDS011;64046;51.978;5.934;2022-11-15T03:50:56;17.00;;;9.70;;
75358;SDS011;64046;51.978;5.934;2022-11-15T03:53:46;15.00;;;9.45;;
75358;SDS011;64046;51.978;5.934;2022-11-15T03:56:35;15.68;;;9.63;;
75358;SDS011;64046;51.978;5.934;2022-11-15T03:59:22;17.98;;;9.88;;
75358;SDS011;64046;51.978;5.934;2022-11-15T04:02:10;19.27;;;10.43;;
75358;SDS011;64046;51.978;5.934;2022-11-15T04:04:58;15.63;;;10.60;;
75358;SDS011;64046;51.978;5.934;2022-11-15T04:07:45;15.00;;;9.82;;
75358;SDS011;64046;51.978;5.934;2022-11-15T04:10:35;17.85;;;10.00;;
75358;SDS011;64046;51.978;5.934;2022-11-15T04:13:23;18.75;;;10.43;;
75358;SDS011;64046;51.978;5.934;2022-11-15T04:16:10;21.10;;;11.05;;
75358;SDS011;64046;51.978;5.934;2022-11-15T04:18:58;17.90;;;10.65;;
75358;SDS011;64046;51.978;5.934;2022-11-15T04:21:58;18.00;;;10.40;;
75358;SDS011;64046;51.978;5.934;2022-11-15T04:24:58;18.42;;;9.95;;
75358;SDS011;64046;51.978;5.934;2022-11-15T04:27:48;17.15;;;10.38;;
75358;SDS011;64046;51.978;5.934;2022-11-15T04:30:36;17.90;;;10.85;;
75358;SDS011;64046;51.978;5.934;2022-11-15T04:33:24;18.60;;;10.77;;
75358;SDS011;64046;51.978;5.934;2022-11-15T04:36:12;20.15;;;10.73;;
75358;SDS011;64046;51.978;5.934;2022-11-15T04:39:12;16.88;;;11.20;;
75358;SDS011;64046;51.978;5.934;2022-11-15T04:41:59;14.40;;;9.88;;
75358;SDS011;64046;51.978;5.934;2022-11-15T04:45:03;15.75;;;9.90;;
75358;SDS011;64046;51.978;5.934;2022-11-15T04:47:52;21.38;;;10.68;;
75358;SDS011;64046;51.978;5.934;2022-11-15T04:50:39;18.83;;;11.38;;
75358;SDS011;64046;51.978;5.934;2022-11-15T04:53:27;20.95;;;13.82;;
75358;SDS011;64046;51.978;5.934;2022-11-15T04:56:14;18.52;;;11.23;;
75358;SDS011;64046;51.978;5.934;2022-11-15T04:59:02;17.85;;;11.32;;
75358;SDS011;64046;51.978;5.934;2022-11-15T05:01:53;17.08;;;9.93;;
75358;SDS011;64046;51.978;5.934;2022-11-15T05:04:40;19.77;;;11.45;;
75358;SDS011;64046;51.978;5.934;2022-11-15T05:07:26;24.23;;;13.32;;
75358;SDS011;64046;51.978;5.934;2022-11-15T05:10:13;20.98;;;12.07;;
75358;SDS011;64046;51.978;5.934;2022-11-15T05:13:01;20.45;;;12.48;;
75358;SDS011;64046;51.978;5.934;2022-11-15T05:15:49;24.23;;;12.98;;
75358;SDS011;64046;51.978;5.934;2022-11-15T05:18:39;21.23;;;13.40;;
75358;SDS011;64046;51.978;5.934;2022-11-15T05:21:27;17.30;;;10.82;;
75358;SDS011;64046;51.978;5.934;2022-11-15T05:24:15;18.45;;;11.32;;
75358;SDS011;64046;51.978;5.934;2022-11-15T05:27:03;17.30;;;9.98;;
75358;SDS011;64046;51.978;5.934;2022-11-15T05:29:50;14.45;;;9.88;;
75358;SDS011;64046;51.978;5.934;2022-11-15T05:32:38;18.65;;;10.75;;
75358;SDS011;64046;51.978;5.934;2022-11-15T05:35:30;18.23;;;11.00;;
75358;SDS011;64046;51.978;5.934;2022-11-15T05:38:21;17.02;;;9.82;;
75358;SDS011;64046;51.978;5.934;2022-11-15T05:41:10;17.33;;;9.98;;
75358;SDS011;64046;51.978;5.934;2022-11-15T05:43:59;15.32;;;9.77;;
75358;SDS011;64046;51.978;5.934;2022-11-15T05:46:48;19.45;;;11.77;;
75358;SDS011;64046;51.978;5.934;2022-11-15T05:49:38;20.83;;;11.18;;
75358;SDS011;64046;51.978;5.934;2022-11-15T05:52:31;14.52;;;9.60;;
75358;SDS011;64046;51.978;5.934;2022-11-15T05:55:23;20.45;;;10.95;;
75358;SDS011;64046;51.978;5.934;2022-11-15T05:58:11;17.13;;;10.13;;
75358;SDS011;64046;51.978;5.934;2022-11-15T06:00:59;18.05;;;11.00;;
75358;SDS011;64046;51.978;5.934;2022-11-15T06:03:47;15.77;;;9.95;;
75358;SDS011;64046;51.978;5.934;2022-11-15T06:06:35;23.48;;;10.52;;
75358;SDS011;64046;51.978;5.934;2022-11-15T06:09:25;19.98;;;10.45;;
75358;SDS011;64046;51.978;5.934;2022-11-15T06:12:13;19.92;;;10.43;;
75358;SDS011;64046;51.978;5.934;2022-11-15T06:15:00;13.90;;;9.80;;
75358;SDS011;64046;51.978;5.934;2022-11-15T06:17:48;21.63;;;12.82;;
75358;SDS011;64046;51.978;5.934;2022-11-15T06:20:36;18.08;;;10.93;;
75358;SDS011;64046;51.978;5.934;2022-11-15T06:23:23;18.10;;;10.25;;
75358;SDS011;64046;51.978;5.934;2022-11-15T06:26:13;15.40;;;9.88;;
75358;SDS011;64046;51.978;5.934;2022-11-15T06:29:02;16.25;;;10.15;;
75358;SDS011;64046;51.978;5.934;2022-11-15T06:31:50;19.58;;;10.18;;
75358;SDS011;64046;51.978;5.934;2022-11-15T06:34:38;17.55;;;9.98;;
75358;SDS011;64046;51.978;5.934;2022-11-15T06:37:25;17.55;;;10.65;;
75358;SDS011;64046;51.978;5.934;2022-11-15T06:40:13;17.95;;;11.02;;
75358;SDS011;64046;51.978;5.934;2022-11-15T06:43:04;15.60;;;9.98;;
75358;SDS011;64046;51.978;5.934;2022-11-15T06:45:52;17.65;;;11.15;;
75358;SDS011;64046;51.978;5.934;2022-11-15T06:48:39;19.17;;;11.50;;
75358;SDS011;64046;51.978;5.934;2022-11-15T06:51:27;17.02;;;11.07;;
75358;SDS011;64046;51.978;5.934;2022-11-15T06:54:15;17.35;;;11.18;;
75358;SDS011;64046;51.978;5.934;2022-11-15T06:57:03;15.93;;;10.95;;
75358;SDS011;64046;51.978;5.934;2022-11-15T06:59:54;18.75;;;11.80;;
75358;SDS011;64046;51.978;5.934;2022-11-15T07:02:42;21.70;;;10.98;;
75358;SDS011;64046;51.978;5.934;2022-11-15T07:05:29;24.02;;;12.02;;
75358;SDS011;64046;51.978;5.934;2022-11-15T07:08:17;16.80;;;10.52;;
75358;SDS011;64046;51.978;5.934;2022-11-15T07:11:06;16.92;;;10.30;;
75358;SDS011;64046;51.978;5.934;2022-11-15T07:13:55;23.20;;;12.82;;
75358;SDS011;64046;51.978;5.934;2022-11-15T07:16:45;17.35;;;10.98;;
75358;SDS011;64046;51.978;5.934;2022-11-15T07:19:33;18.88;;;10.63;;
75358;SDS011;64046;51.978;5.934;2022-11-15T07:22:21;16.80;;;9.15;;
75358;SDS011;64046;51.978;5.934;2022-11-15T07:25:08;17.52;;;10.75;;
75358;SDS011;64046;51.978;5.934;2022-11-15T07:27:56;18.02;;;10.10;;
75358;SDS011;64046;51.978;5.934;2022-11-15T07:30:45;24.23;;;12.25;;
75358;SDS011;64046;51.978;5.934;2022-11-15T07:33:35;18.25;;;11.98;;
75358;SDS011;64046;51.978;5.934;2022-11-15T07:36:23;18.80;;;11.52;;
75358;SDS011;64046;51.978;5.934;2022-11-15T07:39:11;17.25;;;11.85;;
75358;SDS011;64046;51.978;5.934;2022-11-15T07:41:59;16.50;;;9.88;;
75358;SDS011;64046;51.978;5.934;2022-11-15T07:45:00;20.63;;;11.02;;
75358;SDS011;64046;51.978;5.934;2022-11-15T07:47:48;17.50;;;10.35;;
75358;SDS011;64046;51.978;5.934;2022-11-15T07:50:39;16.20;;;9.70;;
75358;SDS011;64046;51.978;5.934;2022-11-15T07:53:27;13.50;;;9.05;;
75358;SDS011;64046;51.978;5.934;2022-11-15T07:56:15;15.75;;;9.30;;
75358;SDS011;64046;51.978;5.934;2022-11-15T07:59:05;14.60;;;8.85;;
75358;SDS011;64046;51.978;5.934;2022-11-15T08:01:52;15.70;;;10.50;;
75358;SDS011;64046;51.978;5.934;2022-11-15T08:04:40;15.73;;;8.35;;
75358;SDS011;64046;51.978;5.934;2022-11-15T08:07:31;13.88;;;7.90;;
75358;SDS011;64046;51.978;5.934;2022-11-15T08:10:19;12.32;;;7.60;;
75358;SDS011;64046;51.978;5.934;2022-11-15T08:13:07;12.23;;;8.20;;
75358;SDS011;64046;51.978;5.934;2022-11-15T08:15:57;14.00;;;7.90;;
75358;SDS011;64046;51.978;5.934;2022-11-15T08:18:45;11.65;;;7.57;;
75358;SDS011;64046;51.978;5.934;2022-11-15T08:21:33;15.10;;;7.95;;
75358;SDS011;64046;51.978;5.934;2022-11-15T08:24:24;16.05;;;9.57;;
75358;SDS011;64046;51.978;5.934;2022-11-15T08:27:22;12.20;;;7.40;;
75358;SDS011;64046;51.978;5.934;2022-11-15T08:30:10;12.00;;;7.70;;
75358;SDS011;64046;51.978;5.934;2022-11-15T08:33:00;11.73;;;7.22;;
75358;SDS011;64046;51.978;5.934;2022-11-15T08:35:48;14.57;;;7.95;;
75358;SDS011;64046;51.978;5.934;2022-11-15T08:38:35;15.77;;;8.18;;
75358;SDS011;64046;51.978;5.934;2022-11-15T08:41:26;11.55;;;7.82;;
75358;SDS011;64046;51.978;5.934;2022-11-15T08:44:18;14.80;;;7.93;;
75358;SDS011;64046;51.978;5.934;2022-11-15T08:47:06;15.73;;;9.65;;
75358;SDS011;64046;51.978;5.934;2022-11-15T08:49:55;23.20;;;10.27;;
75358;SDS011;64046;51.978;5.934;2022-11-15T08:52:42;14.90;;;10.32;;
75358;SDS011;64046;51.978;5.934;2022-11-15T08:55:30;14.82;;;9.52;;
75358;SDS011;64046;51.978;5.934;2022-11-15T08:58:20;17.10;;;9.85;;
75358;SDS011;64046;51.978;5.934;2022-11-15T09:01:13;20.30;;;11.27;;
75358;SDS011;64046;51.978;5.934;2022-11-15T09:04:02;15.35;;;9.40;;
75358;SDS011;64046;51.978;5.934;2022-11-15T09:06:50;18.58;;;9.50;;
75358;SDS011;64046;51.978;5.934;2022-11-15T09:09:38;16.42;;;9.82;;
75358;SDS011;64046;51.978;5.934;2022-11-15T09:12:26;18.38;;;8.43;;
75358;SDS011;64046;51.978;5.934;2022-11-15T09:15:16;14.90;;;9.18;;
75358;SDS011;64046;51.978;5.934;2022-11-15T09:18:04;31.30;;;11.50;;
75358;SDS011;64046;51.978;5.934;2022-11-15T09:20:54;16.25;;;8.30;;
75358;SDS011;64046;51.978;5.934;2022-11-15T09:23:43;14.02;;;8.77;;
75358;SDS011;64046;51.978;5.934;2022-11-15T09:26:31;14.73;;;8.38;;
75358;SDS011;64046;51.978;5.934;2022-11-15T09:29:18;13.95;;;7.55;;
75358;SDS011;64046;51.978;5.934;2022-11-15T09:32:09;11.95;;;6.55;;
75358;SDS011;64046;51.978;5.934;2022-11-15T09:34:56;13.77;;;7.35;;
75358;SDS011;64046;51.978;5.934;2022-11-15T09:37:44;14.02;;;6.90;;
75358;SDS011;64046;51.978;5.934;2022-11-15T09:40:32;10.10;;;7.50;;
75358;SDS011;64046;51.978;5.934;2022-11-15T09:43:29;14.70;;;7.28;;
75358;SDS011;64046;51.978;5.934;2022-11-15T09:46:24;14.82;;;7.72;;
75358;SDS011;64046;51.978;5.934;2022-11-15T09:49:25;13.82;;;8.05;;
75358;SDS011;64046;51.978;5.934;2022-11-15T09:52:17;10.18;;;6.47;;
75358;SDS011;64046;51.978;5.934;2022-11-15T09:54:48;10.50;;;7.63;;
75358;SDS011;64046;51.978;5.934;2022-11-15T09:57:20;12.88;;;7.97;;
75358;SDS011;64046;51.978;5.934;2022-11-15T09:59:56;11.18;;;6.82;;
75358;SDS011;64046;51.978;5.934;2022-11-15T10:02:45;13.82;;;6.82;;
75358;SDS011;64046;51.978;5.934;2022-11-15T10:05:27;12.43;;;7.18;;
75358;SDS011;64046;51.978;5.934;2022-11-15T10:07:58;10.00;;;6.25;;
75358;SDS011;64046;51.978;5.934;2022-11-15T10:10:33;10.98;;;6.93;;
75358;SDS011;64046;51.978;5.934;2022-11-15T10:13:06;11.13;;;5.85;;
75358;SDS011;64046;51.978;5.934;2022-11-15T10:15:43;11.77;;;6.75;;
75358;SDS011;64046;51.978;5.934;2022-11-15T10:18:15;7.07;;;4.72;;
75358;SDS011;64046;51.978;5.934;2022-11-15T10:20:50;7.18;;;4.90;;
75358;SDS011;64046;51.978;5.934;2022-11-15T10:23:25;8.70;;;4.78;;
75358;SDS011;64046;51.978;5.934;2022-11-15T10:25:57;11.90;;;5.80;;
75358;SDS011;64046;51.978;5.934;2022-11-15T10:28:29;10.30;;;5.22;;
75358;SDS011;64046;51.978;5.934;2022-11-15T10:30:59;10.75;;;4.50;;
75358;SDS011;64046;51.978;5.934;2022-11-15T10:33:31;10.40;;;4.88;;
75358;SDS011;64046;51.978;5.934;2022-11-15T10:36:18;6.53;;;4.38;;
75358;SDS011;64046;51.978;5.934;2022-11-15T10:38:53;9.27;;;4.38;;
75358;SDS011;64046;51.978;5.934;2022-11-15T10:41:30;4.75;;;3.58;;
75358;SDS011;64046;51.978;5.934;2022-11-15T10:44:20;4.40;;;2.83;;
75358;SDS011;64046;51.978;5.934;2022-11-15T10:49:58;4.28;;;2.58;;
75358;SDS011;64046;51.978;5.934;2022-11-15T10:52:31;8.68;;;3.20;;
75358;SDS011;64046;51.978;5.934;2022-11-15T10:55:06;4.50;;;2.75;;
75358;SDS011;64046;51.978;5.934;2022-11-15T10:57:54;4.88;;;2.70;;
75358;SDS011;64046;51.978;5.934;2022-11-15T11:00:27;6.75;;;2.63;;
75358;SDS011;64046;51.978;5.934;2022-11-15T11:03:00;5.43;;;2.63;;
75358;SDS011;64046;51.978;5.934;2022-11-15T11:05:32;8.40;;;2.85;;
75358;SDS011;64046;51.978;5.934;2022-11-15T11:08:23;4.85;;;2.22;;
75358;SDS011;64046;51.978;5.934;2022-11-15T11:10:53;5.15;;;2.63;;
75358;SDS011;64046;51.978;5.934;2022-11-15T11:13:24;4.47;;;2.60;;
75358;SDS011;64046;51.978;5.934;2022-11-15T11:15:58;3.92;;;1.70;;
75358;SDS011;64046;51.978;5.934;2022-11-15T11:18:38;3.17;;;1.85;;
75358;SDS011;64046;51.978;5.934;2022-11-15T11:21:17;5.10;;;2.35;;
75358;SDS011;64046;51.978;5.934;2022-11-15T11:23:57;6.03;;;2.40;;
75358;SDS011;64046;51.978;5.934;2022-11-15T11:26:35;4.90;;;2.03;;
75358;SDS011;64046;51.978;5.934;2022-11-15T11:29:19;6.03;;;2.20;;
75358;SDS011;64046;51.978;5.934;2022-11-15T11:31:58;3.63;;;2.20;;
75358;SDS011;64046;51.978;5.934;2022-11-15T11:34:38;4.63;;;1.77;;
75358;SDS011;64046;51.978;5.934;2022-11-15T11:37:20;4.78;;;1.73;;
75358;SDS011;64046;51.978;5.934;2022-11-15T11:40:05;3.92;;;2.00;;
75358;SDS011;64046;51.978;5.934;2022-11-15T11:42:44;4.22;;;1.65;;
75358;SDS011;64046;51.978;5.934;2022-11-15T11:45:21;2.72;;;1.40;;
75358;SDS011;64046;51.978;5.934;2022-11-15T11:47:58;6.95;;;1.88;;
75358;SDS011;64046;51.978;5.934;2022-11-15T11:50:36;7.65;;;2.00;;
75358;SDS011;64046;51.978;5.934;2022-11-15T11:53:09;3.88;;;1.67;;
75358;SDS011;64046;51.978;5.934;2022-11-15T11:55:44;6.40;;;1.90;;
75358;SDS011;64046;51.978;5.934;2022-11-15T11:58:17;5.50;;;1.98;;
75358;SDS011;64046;51.978;5.934;2022-11-15T12:00:53;6.20;;;2.80;;
75358;SDS011;64046;51.978;5.934;2022-11-15T12:03:28;5.18;;;2.10;;
75358;SDS011;64046;51.978;5.934;2022-11-15T12:06:04;8.00;;;2.83;;
75358;SDS011;64046;51.978;5.934;2022-11-15T12:08:48;5.38;;;1.98;;
75358;SDS011;64046;51.978;5.934;2022-11-15T12:11:27;5.43;;;1.80;;
75358;SDS011;64046;51.978;5.934;2022-11-15T12:14:00;3.22;;;1.70;;
75358;SDS011;64046;51.978;5.934;2022-11-15T12:16:40;4.85;;;1.38;;
75358;SDS011;64046;51.978;5.934;2022-11-15T12:19:11;2.97;;;1.55;;
75358;SDS011;64046;51.978;5.934;2022-11-15T12:21:42;4.07;;;1.65;;
75358;SDS011;64046;51.978;5.934;2022-11-15T12:24:15;6.38;;;1.80;;
75358;SDS011;64046;51.978;5.934;2022-11-15T12:26:52;4.90;;;2.05;;
75358;SDS011;64046;51.978;5.934;2022-11-15T12:29:26;8.88;;;2.50;;
75358;SDS011;64046;51.978;5.934;2022-11-15T12:32:00;3.53;;;1.90;;
75358;SDS011;64046;51.978;5.934;2022-11-15T12:34:34;4.03;;;1.90;;
75358;SDS011;64046;51.978;5.934;2022-11-15T12:40:22;3.70;;;1.60;;
75358;SDS011;64046;51.978;5.934;2022-11-15T12:46:08;7.72;;;2.28;;
75358;SDS011;64046;51.978;5.934;2022-11-15T12:48:47;4.15;;;2.00;;
75358;SDS011;64046;51.978;5.934;2022-11-15T12:51:22;4.30;;;1.77;;
75358;SDS011;64046;51.978;5.934;2022-11-15T13:03:28;4.35;;;1.33;;
75358;SDS011;64046;51.978;5.934;2022-11-15T13:05:59;7.57;;;1.65;;
75358;SDS011;64046;51.978;5.934;2022-11-15T13:08:39;6.85;;;1.55;;
75358;SDS011;64046;51.978;5.934;2022-11-15T13:17:20;3.33;;;1.08;;
75358;SDS011;64046;51.978;5.934;2022-11-15T13:19:57;3.20;;;1.40;;
75358;SDS011;64046;51.978;5.934;2022-11-15T13:22:38;4.50;;;1.42;;
75358;SDS011;64046;51.978;5.934;2022-11-15T13:25:26;3.97;;;1.30;;
75358;SDS011;64046;51.978;5.934;2022-11-15T13:28:09;2.72;;;1.40;;
75358;SDS011;64046;51.978;5.934;2022-11-15T13:30:49;4.13;;;1.15;;
75358;SDS011;64046;51.978;5.934;2022-11-15T13:33:20;6.13;;;1.48;;
75358;SDS011;64046;51.978;5.934;2022-11-15T13:35:54;4.10;;;1.23;;
75358;SDS011;64046;51.978;5.934;2022-11-15T13:38:26;4.45;;;1.88;;
75358;SDS011;64046;51.978;5.934;2022-11-15T13:40:57;5.28;;;1.90;;
75358;SDS011;64046;51.978;5.934;2022-11-15T13:43:29;3.10;;;1.92;;
75358;SDS011;64046;51.978;5.934;2022-11-15T13:46:06;5.05;;;3.00;;
75358;SDS011;64046;51.978;5.934;2022-11-15T13:48:39;10.15;;;3.50;;
75358;SDS011;64046;51.978;5.934;2022-11-15T13:51:12;5.75;;;3.20;;
75358;SDS011;64046;51.978;5.934;2022-11-15T13:53:47;9.82;;;3.17;;
75358;SDS011;64046;51.978;5.934;2022-11-15T13:56:19;5.25;;;2.78;;
75358;SDS011;64046;51.978;5.934;2022-11-15T13:58:49;5.78;;;3.22;;
75358;SDS011;64046;51.978;5.934;2022-11-15T14:01:20;5.28;;;2.50;;
75358;SDS011;64046;51.978;5.934;2022-11-15T14:03:51;4.53;;;2.45;;
75358;SDS011;64046;51.978;5.934;2022-11-15T14:06:25;6.95;;;1.90;;
75358;SDS011;64046;51.978;5.934;2022-11-15T14:08:59;4.90;;;1.67;;
75358;SDS011;64046;51.978;5.934;2022-11-15T14:11:49;3.60;;;1.20;;
75358;SDS011;64046;51.978;5.934;2022-11-15T14:14:20;4.35;;;1.30;;
75358;SDS011;64046;51.978;5.934;2022-11-15T14:16:51;4.30;;;1.55;;
75358;SDS011;64046;51.978;5.934;2022-11-15T14:19:35;7.28;;;3.88;;
75358;SDS011;64046;51.978;5.934;2022-11-15T14:22:18;7.60;;;3.70;;
75358;SDS011;64046;51.978;5.934;2022-11-15T14:25:05;8.50;;;4.70;;
75358;SDS011;64046;51.978;5.934;2022-11-15T14:27:42;5.05;;;2.95;;
75358;SDS011;64046;51.978;5.934;2022-11-15T14:30:13;4.97;;;2.50;;
75358;SDS011;64046;51.978;5.934;2022-11-15T14:32:44;6.45;;;1.60;;
75358;SDS011;64046;51.978;5.934;2022-11-15T14:35:16;2.88;;;1.80;;
75358;SDS011;64046;51.978;5.934;2022-11-15T14:37:49;5.43;;;1.48;;
75358;SDS011;64046;51.978;5.934;2022-11-15T14:40:19;4.20;;;1.10;;
75358;SDS011;64046;51.978;5.934;2022-11-15T14:42:49;2.85;;;1.02;;
75358;SDS011;64046;51.978;5.934;2022-11-15T14:45:19;3.72;;;1.20;;
75358;SDS011;64046;51.978;5.934;2022-11-15T14:47:50;2.33;;;1.35;;
75358;SDS011;64046;51.978;5.934;2022-11-15T14:50:20;6.72;;;1.55;;
75358;SDS011;64046;51.978;5.934;2022-11-15T14:52:52;4.30;;;1.50;;
75358;SDS011;64046;51.978;5.934;2022-11-15T14:55:22;3.03;;;1.23;;
75358;SDS011;64046;51.978;5.934;2022-11-15T14:57:54;2.92;;;1.10;;
75358;SDS011;64046;51.978;5.934;2022-11-15T15:00:23;4.68;;;1.40;;
75358;SDS011;64046;51.978;5.934;2022-11-15T15:02:53;3.95;;;1.00;;
75358;SDS011;64046;51.978;5.934;2022-11-15T15:05:23;4.03;;;1.38;;
75358;SDS011;64046;51.978;5.934;2022-11-15T15:07:56;5.50;;;1.40;;
75358;SDS011;64046;51.978;5.934;2022-11-15T15:10:26;3.17;;;1.42;;
75358;SDS011;64046;51.978;5.934;2022-11-15T15:12:59;3.90;;;1.48;;
75358;SDS011;64046;51.978;5.934;2022-11-15T15:15:33;3.05;;;1.60;;
75358;SDS011;64046;51.978;5.934;2022-11-15T15:18:03;3.47;;;1.42;;
75358;SDS011;64046;51.978;5.934;2022-11-15T15:20:34;4.70;;;1.40;;
75358;SDS011;64046;51.978;5.934;2022-11-15T15:23:07;5.00;;;1.65;;
75358;SDS011;64046;51.978;5.934;2022-11-15T15:25:42;3.95;;;1.25;;
75358;SDS011;64046;51.978;5.934;2022-11-15T15:28:12;2.25;;;1.40;;
75358;SDS011;64046;51.978;5.934;2022-11-15T15:30:41;2.95;;;1.60;;
75358;SDS011;64046;51.978;5.934;2022-11-15T15:33:10;4.25;;;1.70;;
75358;SDS011;64046;51.978;5.934;2022-11-15T15:35:40;4.43;;;1.60;;
75358;SDS011;64046;51.978;5.934;2022-11-15T15:40:44;3.88;;;1.77;;
75358;SDS011;64046;51.978;5.934;2022-11-15T15:43:13;3.05;;;1.60;;
75358;SDS011;64046;51.978;5.934;2022-11-15T15:45:42;4.10;;;1.52;;
75358;SDS011;64046;51.978;5.934;2022-11-15T15:48:12;4.95;;;1.63;;
75358;SDS011;64046;51.978;5.934;2022-11-15T15:50:42;4.70;;;1.38;;
75358;SDS011;64046;51.978;5.934;2022-11-15T15:53:15;5.38;;;1.30;;
75358;SDS011;64046;51.978;5.934;2022-11-15T15:55:44;3.63;;;1.58;;
75358;SDS011;64046;51.978;5.934;2022-11-15T15:58:13;5.10;;;1.33;;
75358;SDS011;64046;51.978;5.934;2022-11-15T16:00:42;3.22;;;1.60;;
75358;SDS011;64046;51.978;5.934;2022-11-15T16:03:11;4.70;;;1.65;;
75358;SDS011;64046;51.978;5.934;2022-11-15T16:05:41;3.13;;;1.50;;
75358;SDS011;64046;51.978;5.934;2022-11-15T16:08:16;3.88;;;1.67;;
75358;SDS011;64046;51.978;5.934;2022-11-15T16:10:47;3.40;;;1.70;;
75358;SDS011;64046;51.978;5.934;2022-11-15T16:13:17;2.85;;;1.58;;
75358;SDS011;64046;51.978;5.934;2022-11-15T16:15:46;10.02;;;1.65;;
75358;SDS011;64046;51.978;5.934;2022-11-15T16:18:19;6.63;;;1.95;;
75358;SDS011;64046;51.978;5.934;2022-11-15T16:20:48;3.53;;;1.52;;
75358;SDS011;64046;51.978;5.934;2022-11-15T16:23:24;7.88;;;1.90;;
75358;SDS011;64046;51.978;5.934;2022-11-15T16:25:54;4.60;;;2.08;;
75358;SDS011;64046;51.978;5.934;2022-11-15T16:28:25;3.20;;;1.90;;
75358;SDS011;64046;51.978;5.934;2022-11-15T16:31:00;6.70;;;1.92;;
75358;SDS011;64046;51.978;5.934;2022-11-15T16:33:31;4.78;;;2.00;;
75358;SDS011;64046;51.978;5.934;2022-11-15T16:36:02;5.70;;;1.98;;
75358;SDS011;64046;51.978;5.934;2022-11-15T16:38:40;4.25;;;1.90;;
75358;SDS011;64046;51.978;5.934;2022-11-15T16:41:09;6.43;;;2.47;;
75358;SDS011;64046;51.978;5.934;2022-11-15T16:43:38;5.32;;;1.85;;